Time;durP1;ratioP1;P1;durP2;ratioP2;P2;SDS_P1;SDS_P2;PMS_P1;PMS_P2;Temp;Humidity;BMP_temperature;BMP_pressure;BME280_temperature;BME280_humidity;BME280_pressure;Samples;Min_cycle;Max_cycle;Signal;HPM_P1;HPM_P2
2021/09/15 00:00:52;;;;;;;5.78;5.10;;;;;;;;;;5041695;28;20044;-74
2021/09/15 00:03:37;;;;;;;8.70;5.18;;;;;;;;;;5047741;28;20044;-75
2021/09/15 00:06:22;;;;;;;6.30;4.82;;;;;;;;;;5046255;28;20047;-74
2021/09/15 00:09:06;;;;;;;5.97;5.10;;;;;;;;;;5043878;28;20060;-74
2021/09/15 00:11:51;;;;;;;5.32;4.78;;;;;;;;;;5043702;28;20048;-74
2021/09/15 00:14:35;;;;;;;5.82;4.93;;;;;;;;;;5045836;28;20406;-74
2021/09/15 00:17:20;;;;;;;5.68;5.00;;;;;;;;;;5043103;28;20205;-74
2021/09/15 00:20:05;;;;;;;6.22;5.35;;;;;;;;;;5044521;28;20040;-75
2021/09/15 00:22:50;;;;;;;6.13;5.30;;;;;;;;;;5044178;28;20680;-74
2021/09/15 00:25:34;;;;;;;5.53;4.90;;;;;;;;;;5044549;28;20044;-74
2021/09/15 00:28:19;;;;;;;5.70;4.95;;;;;;;;;;5045252;28;20473;-74
2021/09/15 00:31:03;;;;;;;5.72;5.05;;;;;;;;;;5030336;28;20067;-75
2021/09/15 00:33:48;;;;;;;6.53;4.97;;;;;;;;;;5037268;28;20557;-75
2021/09/15 00:36:32;;;;;;;5.55;4.82;;;;;;;;;;5032639;28;20092;-74
2021/09/15 00:39:17;;;;;;;5.93;4.80;;;;;;;;;;5029693;28;20110;-75
2021/09/15 00:42:01;;;;;;;6.53;5.00;;;;;;;;;;5029731;28;20688;-74
2021/09/15 00:44:46;;;;;;;5.65;4.70;;;;;;;;;;5044083;28;20112;-74
2021/09/15 00:47:30;;;;;;;5.53;5.03;;;;;;;;;;5024539;28;20044;-74
2021/09/15 00:50:15;;;;;;;6.68;5.32;;;;;;;;;;5042643;28;20583;-75
2021/09/15 00:53:01;;;;;;;6.40;4.55;;;;;;;;;;5044375;28;20100;-74
2021/09/15 00:55:46;;;;;;;6.32;5.18;;;;;;;;;;5041708;28;20086;-75
2021/09/15 00:58:30;;;;;;;5.10;4.60;;;;;;;;;;5044181;28;20047;-74
2021/09/15 01:01:15;;;;;;;6.25;5.32;;;;;;;;;;5021938;28;20100;-74
2021/09/15 01:03:59;;;;;;;5.57;4.60;;;;;;;;;;5043849;28;20044;-75
2021/09/15 01:06:44;;;;;;;6.22;4.85;;;;;;;;;;5044761;28;20048;-75
2021/09/15 01:09:30;;;;;;;6.20;5.05;;;;;;;;;;5044866;28;20051;-75
2021/09/15 01:12:14;;;;;;;5.93;5.20;;;;;;;;;;5039996;28;20043;-75
2021/09/15 01:14:59;;;;;;;6.35;4.97;;;;;;;;;;5039835;28;20142;-75
2021/09/15 01:17:43;;;;;;;6.43;4.80;;;;;;;;;;5044900;28;20086;-75
2021/09/15 01:20:28;;;;;;;6.38;5.40;;;;;;;;;;5044478;28;20036;-74
2021/09/15 01:23:12;;;;;;;6.20;5.32;;;;;;;;;;5030047;28;20086;-74
2021/09/15 01:25:57;;;;;;;5.93;5.32;;;;;;;;;;5043409;28;20710;-75
2021/09/15 01:28:42;;;;;;;6.30;5.30;;;;;;;;;;5043672;28;20048;-75
2021/09/15 01:31:26;;;;;;;6.32;5.40;;;;;;;;;;5043509;28;20449;-75
2021/09/15 01:34:11;;;;;;;6.07;5.28;;;;;;;;;;5029830;28;20144;-75
2021/09/15 01:36:56;;;;;;;5.50;4.70;;;;;;;;;;5044755;28;20079;-74
2021/09/15 01:39:40;;;;;;;5.50;4.85;;;;;;;;;;5043324;28;20039;-75
2021/09/15 01:42:25;;;;;;;8.05;5.22;;;;;;;;;;5044700;28;20095;-75
2021/09/15 01:45:10;;;;;;;5.43;4.88;;;;;;;;;;5029051;28;20047;-75
2021/09/15 01:47:55;;;;;;;6.38;5.10;;;;;;;;;;5045539;28;20544;-74
2021/09/15 01:50:39;;;;;;;6.30;5.32;;;;;;;;;;5031808;28;20456;-74
2021/09/15 01:53:24;;;;;;;6.93;5.10;;;;;;;;;;5044797;28;20098;-74
2021/09/15 01:56:09;;;;;;;6.80;5.40;;;;;;;;;;5046761;28;20075;-74
2021/09/15 01:58:53;;;;;;;5.95;5.35;;;;;;;;;;5046473;28;20109;-74
2021/09/15 02:01:38;;;;;;;5.45;4.85;;;;;;;;;;5045480;28;20066;-74
2021/09/15 02:04:22;;;;;;;7.15;5.28;;;;;;;;;;5045471;28;20098;-74
2021/09/15 02:07:07;;;;;;;7.13;5.25;;;;;;;;;;5045514;28;20044;-74
2021/09/15 02:09:52;;;;;;;6.50;5.28;;;;;;;;;;5044556;28;20178;-74
2021/09/15 02:12:39;;;;;;;6.13;5.25;;;;;;;;;;5031103;28;20051;-74
2021/09/15 02:15:24;;;;;;;6.50;5.53;;;;;;;;;;5044941;28;20827;-74
2021/09/15 02:18:08;;;;;;;6.18;5.25;;;;;;;;;;5045630;28;20040;-74
2021/09/15 02:20:53;;;;;;;7.05;5.82;;;;;;;;;;5024249;28;20045;-74
2021/09/15 02:23:37;;;;;;;6.70;5.00;;;;;;;;;;5045007;28;20048;-74
2021/09/15 02:26:22;;;;;;;6.47;5.68;;;;;;;;;;5044975;28;20078;-74
2021/09/15 02:29:06;;;;;;;7.80;5.68;;;;;;;;;;5045749;28;20052;-74
2021/09/15 02:31:51;;;;;;;6.78;5.40;;;;;;;;;;5046246;28;20048;-74
2021/09/15 02:34:36;;;;;;;6.18;5.50;;;;;;;;;;5046430;28;20904;-74
2021/09/15 02:37:20;;;;;;;7.25;6.18;;;;;;;;;;5045090;28;20047;-74
2021/09/15 02:40:05;;;;;;;7.65;6.00;;;;;;;;;;5045404;28;20075;-74
2021/09/15 02:42:50;;;;;;;7.95;6.20;;;;;;;;;;5049627;28;20039;-74
2021/09/15 02:45:34;;;;;;;6.75;5.90;;;;;;;;;;5048621;28;20028;-74
2021/09/15 02:48:19;;;;;;;6.72;5.93;;;;;;;;;;5049704;28;20505;-74
2021/09/15 02:51:04;;;;;;;7.78;6.57;;;;;;;;;;5050079;28;20055;-74
2021/09/15 02:53:48;;;;;;;6.55;5.82;;;;;;;;;;5049501;28;20107;-74
2021/09/15 02:56:33;;;;;;;6.97;5.65;;;;;;;;;;5049608;28;20616;-75
2021/09/15 02:59:17;;;;;;;7.63;6.25;;;;;;;;;;5048392;28;20128;-75
2021/09/15 03:02:02;;;;;;;6.45;5.75;;;;;;;;;;5045291;28;20106;-75
2021/09/15 03:04:47;;;;;;;7.28;6.03;;;;;;;;;;5044650;28;20044;-75
2021/09/15 03:07:31;;;;;;;7.03;5.55;;;;;;;;;;5051441;28;20163;-75
2021/09/15 03:10:16;;;;;;;6.88;6.18;;;;;;;;;;5044486;28;20082;-75
2021/09/15 03:13:00;;;;;;;7.18;5.55;;;;;;;;;;5042464;28;20107;-75
2021/09/15 03:15:45;;;;;;;7.63;6.55;;;;;;;;;;5047741;28;20064;-75
2021/09/15 03:18:29;;;;;;;6.55;5.85;;;;;;;;;;5044707;28;20497;-75
2021/09/15 03:21:14;;;;;;;7.50;6.22;;;;;;;;;;5048644;28;20542;-75
2021/09/15 03:23:58;;;;;;;8.63;6.82;;;;;;;;;;5047402;28;20146;-75
2021/09/15 03:26:43;;;;;;;7.45;6.45;;;;;;;;;;5040176;28;20517;-75
2021/09/15 03:29:27;;;;;;;7.35;6.57;;;;;;;;;;5048890;28;20048;-75
2021/09/15 03:32:12;;;;;;;7.53;5.82;;;;;;;;;;5048345;28;20059;-75
2021/09/15 03:34:56;;;;;;;8.73;6.60;;;;;;;;;;5037304;28;20052;-75
2021/09/15 03:37:41;;;;;;;7.60;6.70;;;;;;;;;;5033867;28;20095;-75
2021/09/15 03:40:25;;;;;;;7.57;6.38;;;;;;;;;;5047415;28;20044;-75
2021/09/15 03:43:10;;;;;;;7.93;6.45;;;;;;;;;;5047972;28;20040;-75
2021/09/15 03:45:54;;;;;;;9.15;6.88;;;;;;;;;;5047034;28;20039;-75
2021/09/15 03:48:39;;;;;;;8.57;7.00;;;;;;;;;;5056419;28;20773;-75
2021/09/15 03:51:24;;;;;;;9.32;6.63;;;;;;;;;;5043450;28;20090;-75
2021/09/15 03:54:08;;;;;;;8.32;6.80;;;;;;;;;;5041466;28;20539;-74
2021/09/15 03:56:53;;;;;;;7.80;6.38;;;;;;;;;;5047616;28;20067;-75
2021/09/15 03:59:37;;;;;;;8.23;7.03;;;;;;;;;;5057574;28;20070;-75
2021/09/15 04:02:22;;;;;;;7.95;6.68;;;;;;;;;;5046012;28;20366;-75
2021/09/15 04:05:07;;;;;;;9.77;7.82;;;;;;;;;;5048372;28;20044;-75
2021/09/15 04:07:52;;;;;;;8.00;6.63;;;;;;;;;;5053994;28;20040;-75
2021/09/15 04:10:36;;;;;;;8.40;6.82;;;;;;;;;;5036928;28;20120;-75
2021/09/15 04:13:21;;;;;;;8.90;6.95;;;;;;;;;;5028724;28;20068;-75
2021/09/15 04:16:05;;;;;;;8.40;6.95;;;;;;;;;;5051637;28;20048;-75
2021/09/15 04:18:50;;;;;;;8.98;6.90;;;;;;;;;;5046032;28;20667;-75
2021/09/15 04:21:35;;;;;;;8.63;7.22;;;;;;;;;;5056080;28;20036;-75
2021/09/15 04:33:17;;;;;;;8.15;7.15;;;;;;;;;;5043994;28;20055;-75
2021/09/15 04:36:02;;;;;;;8.50;6.80;;;;;;;;;;5056149;28;20039;-75
2021/09/15 04:38:46;;;;;;;8.15;6.93;;;;;;;;;;5045033;28;20099;-75
2021/09/15 04:41:31;;;;;;;9.98;7.15;;;;;;;;;;5025760;28;20035;-75
2021/09/15 04:44:15;;;;;;;8.65;6.40;;;;;;;;;;5025359;28;20048;-75
2021/09/15 04:47:00;;;;;;;9.30;7.10;;;;;;;;;;5043328;28;20136;-75
2021/09/15 04:49:44;;;;;;;9.32;7.25;;;;;;;;;;5043942;28;20051;-75
2021/09/15 04:52:29;;;;;;;8.05;6.72;;;;;;;;;;5044119;28;20079;-75
2021/09/15 04:55:13;;;;;;;8.25;6.75;;;;;;;;;;5043409;28;20040;-75
2021/09/15 04:57:58;;;;;;;8.70;6.80;;;;;;;;;;5043739;28;20040;-75
2021/09/15 05:00:43;;;;;;;7.95;6.95;;;;;;;;;;5030534;28;20087;-75
2021/09/15 05:03:27;;;;;;;8.95;6.85;;;;;;;;;;5042820;28;20075;-75
2021/09/15 05:06:12;;;;;;;8.18;7.10;;;;;;;;;;5022875;28;20045;-75
2021/09/15 05:08:56;;;;;;;8.75;6.95;;;;;;;;;;5029018;28;20047;-75
2021/09/15 05:11:41;;;;;;;8.55;6.65;;;;;;;;;;5028929;28;20071;-75
2021/09/15 05:14:25;;;;;;;8.55;7.40;;;;;;;;;;5043466;28;20086;-75
2021/09/15 05:17:10;;;;;;;8.38;7.10;;;;;;;;;;5043687;28;20763;-75
2021/09/15 05:19:54;;;;;;;10.43;7.10;;;;;;;;;;5025171;28;20110;-75
2021/09/15 05:22:39;;;;;;;10.38;7.75;;;;;;;;;;5029282;28;20370;-75
2021/09/15 05:25:24;;;;;;;8.82;7.00;;;;;;;;;;5043395;28;20039;-75
2021/09/15 05:28:08;;;;;;;10.60;7.25;;;;;;;;;;5042698;28;20044;-76
2021/09/15 05:30:53;;;;;;;9.75;7.22;;;;;;;;;;5042577;28;20170;-75
2021/09/15 05:33:37;;;;;;;8.88;7.40;;;;;;;;;;5028669;28;20043;-75
2021/09/15 05:36:22;;;;;;;8.15;7.28;;;;;;;;;;5029159;28;20082;-76
2021/09/15 05:39:06;;;;;;;9.95;8.10;;;;;;;;;;5017328;28;20659;-75
2021/09/15 05:41:51;;;;;;;9.02;7.78;;;;;;;;;;5043177;28;20040;-75
2021/09/15 05:44:35;;;;;;;8.60;7.20;;;;;;;;;;5044319;28;20130;-75
2021/09/15 05:47:20;;;;;;;10.60;7.80;;;;;;;;;;5043072;28;20039;-75
2021/09/15 05:50:04;;;;;;;8.48;6.75;;;;;;;;;;5041179;28;20103;-75
2021/09/15 05:52:49;;;;;;;9.38;7.45;;;;;;;;;;5044419;28;20075;-75
2021/09/15 05:55:34;;;;;;;9.65;7.60;;;;;;;;;;5028306;28;20637;-76
2021/09/15 05:58:20;;;;;;;10.15;7.50;;;;;;;;;;5039720;28;20410;-75
2021/09/15 06:01:06;;;;;;;8.80;7.88;;;;;;;;;;5038086;28;20103;-75
2021/09/15 06:03:51;;;;;;;10.90;8.35;;;;;;;;;;5042896;28;20135;-75
2021/09/15 06:06:35;;;;;;;10.85;8.30;;;;;;;;;;5042570;28;20078;-75
2021/09/15 06:09:20;;;;;;;8.85;7.07;;;;;;;;;;5040501;28;20051;-75
2021/09/15 06:12:05;;;;;;;9.70;7.53;;;;;;;;;;5037596;28;20511;-75
2021/09/15 06:14:49;;;;;;;10.48;8.15;;;;;;;;;;5034593;28;20079;-76
2021/09/15 06:17:34;;;;;;;9.82;8.02;;;;;;;;;;5028771;28;20059;-75
2021/09/15 06:20:18;;;;;;;9.15;7.25;;;;;;;;;;5046454;28;20062;-75
2021/09/15 06:23:04;;;;;;;10.27;8.02;;;;;;;;;;5047764;28;20048;-75
2021/09/15 06:25:49;;;;;;;9.02;7.43;;;;;;;;;;5046158;28;20087;-76
2021/09/15 06:28:34;;;;;;;10.10;7.60;;;;;;;;;;5047654;28;20090;-75
2021/09/15 06:31:18;;;;;;;9.98;7.95;;;;;;;;;;5028477;28;20087;-75
2021/09/15 06:34:04;;;;;;;9.18;7.10;;;;;;;;;;5042240;28;20044;-75
2021/09/15 06:36:48;;;;;;;9.32;7.80;;;;;;;;;;5038733;28;20422;-75
2021/09/15 06:39:33;;;;;;;10.68;7.88;;;;;;;;;;5046163;28;20143;-75
2021/09/15 06:42:18;;;;;;;8.10;6.72;;;;;;;;;;5048013;28;20078;-75
2021/09/15 06:45:03;;;;;;;8.60;7.40;;;;;;;;;;5047469;28;20520;-75
2021/09/15 06:47:48;;;;;;;10.88;7.60;;;;;;;;;;5046458;28;20079;-76
2021/09/15 06:50:33;;;;;;;8.35;7.05;;;;;;;;;;5046042;28;20124;-76
2021/09/15 06:53:17;;;;;;;7.95;6.90;;;;;;;;;;5031925;28;20103;-75
2021/09/15 06:56:01;;;;;;;7.63;6.82;;;;;;;;;;5046297;28;20044;-75
2021/09/15 06:58:46;;;;;;;8.20;7.10;;;;;;;;;;5063034;28;20497;-75
2021/09/15 07:01:30;;;;;;;8.85;7.30;;;;;;;;;;5049081;28;20128;-75
2021/09/15 07:04:15;;;;;;;10.27;7.30;;;;;;;;;;5051527;28;20044;-75
2021/09/15 07:07:00;;;;;;;9.25;7.15;;;;;;;;;;5045660;28;20042;-75
2021/09/15 07:09:44;;;;;;;9.52;6.80;;;;;;;;;;5047949;28;20052;-74
2021/09/15 07:12:29;;;;;;;7.95;6.97;;;;;;;;;;5033615;28;20140;-75
2021/09/15 07:15:14;;;;;;;8.57;7.28;;;;;;;;;;5043880;28;20472;-75
2021/09/15 07:17:58;;;;;;;9.20;7.28;;;;;;;;;;5048709;28;20433;-75
2021/09/15 07:20:43;;;;;;;7.18;6.22;;;;;;;;;;5058456;28;20037;-75
2021/09/15 07:23:28;;;;;;;9.00;6.80;;;;;;;;;;5042077;28;20036;-76
2021/09/15 07:26:12;;;;;;;10.15;6.72;;;;;;;;;;5044947;28;20583;-75
2021/09/15 07:28:57;;;;;;;8.05;6.63;;;;;;;;;;5044194;28;20795;-75
2021/09/15 07:31:42;;;;;;;9.10;7.13;;;;;;;;;;5045066;28;20163;-75
2021/09/15 07:34:27;;;;;;;7.72;6.45;;;;;;;;;;5044544;28;20051;-75
2021/09/15 07:37:13;;;;;;;8.02;6.68;;;;;;;;;;5046432;28;20120;-75
2021/09/15 07:39:57;;;;;;;7.55;6.68;;;;;;;;;;5045240;28;20047;-75
2021/09/15 07:42:42;;;;;;;7.90;6.53;;;;;;;;;;5030601;28;20043;-75
2021/09/15 07:45:27;;;;;;;9.35;7.40;;;;;;;;;;5045029;28;20043;-75
2021/09/15 07:48:12;;;;;;;8.82;7.00;;;;;;;;;;5030428;28;20086;-75
2021/09/15 07:50:56;;;;;;;10.18;6.72;;;;;;;;;;5027527;28;20091;-75
2021/09/15 07:53:41;;;;;;;8.98;7.38;;;;;;;;;;5046425;28;20032;-76
2021/09/15 07:56:25;;;;;;;7.88;6.63;;;;;;;;;;5045556;28;20063;-75
2021/09/15 07:59:10;;;;;;;8.90;6.80;;;;;;;;;;5026536;28;20128;-75
2021/09/15 08:01:55;;;;;;;10.63;6.72;;;;;;;;;;5045789;28;20068;-75
2021/09/15 08:04:39;;;;;;;8.77;6.75;;;;;;;;;;5045575;28;20629;-75
2021/09/15 08:07:24;;;;;;;8.20;6.35;;;;;;;;;;5044607;28;20118;-75
2021/09/15 08:10:09;;;;;;;8.75;6.53;;;;;;;;;;5021400;28;20099;-75
2021/09/15 08:12:53;;;;;;;8.15;6.70;;;;;;;;;;5044063;28;20075;-75
2021/09/15 08:15:38;;;;;;;8.90;6.38;;;;;;;;;;5030664;28;20120;-76
2021/09/15 08:18:22;;;;;;;9.90;6.30;;;;;;;;;;5042598;28;20044;-75
2021/09/15 08:21:07;;;;;;;8.75;6.63;;;;;;;;;;5044029;28;20520;-75
2021/09/15 08:23:51;;;;;;;8.23;6.28;;;;;;;;;;5044440;28;20128;-75
2021/09/15 08:26:35;;;;;;;8.98;6.25;;;;;;;;;;5044410;28;20086;-75
2021/09/15 08:29:20;;;;;;;9.35;6.68;;;;;;;;;;5045420;28;20036;-75
2021/09/15 08:32:05;;;;;;;8.60;6.30;;;;;;;;;;5045311;28;20458;-75
2021/09/15 08:34:50;;;;;;;8.13;6.65;;;;;;;;;;5031295;28;20094;-75
2021/09/15 08:37:35;;;;;;;8.80;6.55;;;;;;;;;;5044120;28;20047;-75
2021/09/15 08:40:19;;;;;;;7.80;6.35;;;;;;;;;;5027247;28;20036;-75
2021/09/15 08:43:04;;;;;;;8.07;6.78;;;;;;;;;;5030104;28;20055;-75
2021/09/15 08:45:48;;;;;;;7.57;6.13;;;;;;;;;;5024738;28;20537;-75
2021/09/15 08:48:39;;;;;;;8.70;6.68;;;;;;;;;;5029324;28;20525;-75
2021/09/15 08:51:24;;;;;;;9.05;7.10;;;;;;;;;;5044528;28;20178;-74
2021/09/15 08:54:11;;;;;;;9.52;7.35;;;;;;;;;;5044285;28;20048;-75
2021/09/15 08:56:56;;;;;;;9.35;7.07;;;;;;;;;;5044300;28;20047;-75
2021/09/15 08:59:41;;;;;;;8.98;6.53;;;;;;;;;;5029574;28;20036;-75
2021/09/15 09:02:25;;;;;;;8.50;6.80;;;;;;;;;;5044389;28;20047;-75
2021/09/15 09:05:10;;;;;;;9.88;6.95;;;;;;;;;;5043202;28;20063;-75
2021/09/15 09:07:54;;;;;;;7.40;6.30;;;;;;;;;;5036105;28;20044;-76
2021/09/15 09:10:39;;;;;;;9.48;6.65;;;;;;;;;;5037293;28;20508;-75
2021/09/15 09:13:23;;;;;;;8.43;6.18;;;;;;;;;;5047440;28;20090;-76
2021/09/15 09:16:08;;;;;;;9.43;6.22;;;;;;;;;;5057268;28;20182;-75
2021/09/15 09:18:56;;;;;;;10.57;6.55;;;;;;;;;;5035098;28;20075;-74
2021/09/15 09:21:42;;;;;;;9.15;6.78;;;;;;;;;;5047638;28;20043;-75
2021/09/15 09:24:27;;;;;;;8.77;6.38;;;;;;;;;;5050303;28;20121;-76
2021/09/15 09:27:11;;;;;;;10.82;6.03;;;;;;;;;;5046798;28;20072;-75
2021/09/15 09:29:56;;;;;;;8.52;6.60;;;;;;;;;;5056256;28;20098;-76
2021/09/15 09:32:45;;;;;;;7.30;6.13;;;;;;;;;;5049948;28;20031;-75
2021/09/15 09:35:37;;;;;;;7.82;5.97;;;;;;;;;;5040975;28;20043;-76
2021/09/15 09:38:23;;;;;;;8.38;6.20;;;;;;;;;;5030161;28;20489;-75
2021/09/15 09:41:08;;;;;;;9.85;6.55;;;;;;;;;;5021668;28;20044;-75
2021/09/15 09:43:53;;;;;;;8.80;6.43;;;;;;;;;;5040302;28;20152;-76
2021/09/15 09:46:41;;;;;;;11.93;7.50;;;;;;;;;;5023426;28;20040;-75
2021/09/15 09:49:25;;;;;;;9.30;6.53;;;;;;;;;;5041249;28;20036;-75
2021/09/15 09:52:10;;;;;;;10.13;6.75;;;;;;;;;;5040379;28;20083;-76
2021/09/15 09:55:13;;;;;;;10.70;6.82;;;;;;;;;;5043244;28;20044;-75
2021/09/15 09:57:57;;;;;;;9.25;7.03;;;;;;;;;;5040695;28;20727;-75
2021/09/15 10:00:42;;;;;;;8.00;6.35;;;;;;;;;;5041079;28;20036;-75
2021/09/15 10:03:26;;;;;;;8.95;6.90;;;;;;;;;;5039305;28;20039;-75
2021/09/15 10:06:11;;;;;;;8.60;6.30;;;;;;;;;;5038847;28;20032;-75
2021/09/15 10:08:56;;;;;;;7.63;6.18;;;;;;;;;;5022982;28;20625;-75
2021/09/15 10:11:40;;;;;;;9.35;6.15;;;;;;;;;;5026483;28;20131;-75
2021/09/15 10:14:25;;;;;;;8.27;6.30;;;;;;;;;;5038368;28;20051;-76
2021/09/15 10:17:16;;;;;;;8.88;6.15;;;;;;;;;;5021324;28;20532;-74
2021/09/15 10:20:00;;;;;;;8.70;6.40;;;;;;;;;;5032021;28;20045;-73
2021/09/15 10:22:48;;;;;;;7.15;5.65;;;;;;;;;;5023372;28;20111;-73
2021/09/15 10:25:36;;;;;;;8.48;6.50;;;;;;;;;;5037444;28;20094;-73
2021/09/15 10:28:21;;;;;;;7.55;6.13;;;;;;;;;;5035314;28;20116;-73
2021/09/15 10:31:05;;;;;;;9.75;6.60;;;;;;;;;;5041120;28;20584;-73
2021/09/15 10:33:50;;;;;;;7.93;6.22;;;;;;;;;;5026318;28;20171;-73
2021/09/15 10:36:38;;;;;;;7.13;5.97;;;;;;;;;;5044138;28;20066;-73
2021/09/15 10:39:23;;;;;;;8.68;6.30;;;;;;;;;;5019026;28;20078;-73
2021/09/15 10:42:08;;;;;;;8.63;6.07;;;;;;;;;;5038971;28;20047;-74
2021/09/15 10:45:14;;;;;;;8.45;6.47;;;;;;;;;;5029180;28;20482;-73
2021/09/15 10:47:59;;;;;;;8.82;6.50;;;;;;;;;;5034760;28;20131;-74
2021/09/15 10:50:47;;;;;;;7.20;5.68;;;;;;;;;;5037776;28;20114;-75
2021/09/15 10:53:31;;;;;;;7.75;5.55;;;;;;;;;;5040783;28;20658;-74
2021/09/15 10:56:34;;;;;;;7.65;6.28;;;;;;;;;;5043175;28;20166;-74
2021/09/15 10:59:38;;;;;;;8.80;6.30;;;;;;;;;;5043699;28;20090;-74
2021/09/15 11:02:24;;;;;;;8.48;6.55;;;;;;;;;;5044011;28;20109;-73
2021/09/15 11:05:27;;;;;;;7.75;5.85;;;;;;;;;;5045449;28;20047;-75
2021/09/15 11:08:19;;;;;;;8.05;5.97;;;;;;;;;;5045857;28;20083;-74
2021/09/15 11:11:05;;;;;;;7.20;5.55;;;;;;;;;;5029889;28;20048;-76
2021/09/15 11:13:50;;;;;;;8.23;5.50;;;;;;;;;;5043099;28;20560;-74
2021/09/15 11:16:38;;;;;;;7.72;5.72;;;;;;;;;;5042669;28;20102;-74
2021/09/15 11:19:30;;;;;;;6.47;5.10;;;;;;;;;;5045141;28;20140;-74
2021/09/15 11:22:14;;;;;;;8.40;5.47;;;;;;;;;;5028593;28;20036;-74
2021/09/15 11:24:59;;;;;;;6.78;5.50;;;;;;;;;;5037932;28;20099;-74
2021/09/15 11:27:43;;;;;;;6.82;5.30;;;;;;;;;;5045131;28;20700;-74
2021/09/15 11:30:29;;;;;;;7.28;5.15;;;;;;;;;;5045075;28;20115;-74
2021/09/15 11:33:14;;;;;;;7.00;5.18;;;;;;;;;;5030925;28;20036;-74
2021/09/15 11:35:58;;;;;;;7.65;5.05;;;;;;;;;;5038547;28;20440;-75
2021/09/15 11:38:43;;;;;;;6.35;4.68;;;;;;;;;;5037626;28;20040;-75
2021/09/15 11:41:28;;;;;;;6.78;4.85;;;;;;;;;;5037048;28;20099;-76
2021/09/15 11:44:13;;;;;;;6.05;4.65;;;;;;;;;;5035765;28;20166;-75
2021/09/15 11:47:02;;;;;;;6.00;4.50;;;;;;;;;;5037235;28;20063;-75
2021/09/15 11:49:47;;;;;;;6.07;4.63;;;;;;;;;;5036836;28;20044;-75
2021/09/15 11:52:42;;;;;;;5.65;4.35;;;;;;;;;;5040461;28;20036;-75
2021/09/15 11:55:29;;;;;;;5.60;4.53;;;;;;;;;;5044277;28;20387;-76
2021/09/15 11:58:14;;;;;;;6.25;4.40;;;;;;;;;;5045625;28;20040;-75
2021/09/15 12:00:58;;;;;;;5.32;4.55;;;;;;;;;;5046859;28;20095;-76
2021/09/15 12:03:43;;;;;;;5.03;4.03;;;;;;;;;;5035447;28;20043;-75
2021/09/15 12:06:27;;;;;;;5.07;3.95;;;;;;;;;;5038874;28;20040;-75
2021/09/15 12:09:12;;;;;;;6.10;4.60;;;;;;;;;;5037985;28;20055;-75
2021/09/15 12:11:57;;;;;;;5.18;4.03;;;;;;;;;;5037220;28;20052;-75
2021/09/15 12:14:44;;;;;;;5.07;4.10;;;;;;;;;;5030677;28;20090;-75
2021/09/15 12:17:29;;;;;;;5.10;4.10;;;;;;;;;;5022067;28;20413;-73
2021/09/15 12:20:13;;;;;;;4.90;3.85;;;;;;;;;;5041181;28;20094;-72
2021/09/15 12:22:58;;;;;;;5.07;4.28;;;;;;;;;;5044157;28;20062;-73
2021/09/15 12:25:52;;;;;;;5.15;4.05;;;;;;;;;;5043792;28;20103;-72
2021/09/15 12:28:37;;;;;;;4.55;3.50;;;;;;;;;;5025345;28;20059;-72
2021/09/15 12:31:22;;;;;;;4.82;3.85;;;;;;;;;;5038755;28;20059;-72
2021/09/15 12:34:07;;;;;;;4.50;3.33;;;;;;;;;;5047973;28;20517;-72
2021/09/15 12:36:51;;;;;;;4.55;3.80;;;;;;;;;;5037428;28;20529;-72
2021/09/15 12:40:05;;;;;;;4.88;3.60;;;;;;;;;;5034608;28;20039;-72
2021/09/15 12:43:17;;;;;;;5.22;3.67;;;;;;;;;;5036877;28;20322;-72
2021/09/15 12:46:02;;;;;;;4.03;3.63;;;;;;;;;;5042437;28;20067;-73
2021/09/15 12:48:46;;;;;;;4.60;3.17;;;;;;;;;;5042613;28;20040;-72
2021/09/15 12:51:31;;;;;;;4.50;3.35;;;;;;;;;;5043788;28;20509;-72
2021/09/15 12:54:18;;;;;;;4.60;3.45;;;;;;;;;;5042007;28;20045;-72
2021/09/15 12:57:17;;;;;;;4.60;3.70;;;;;;;;;;5010024;28;20067;-73
2021/09/15 13:00:20;;;;;;;3.88;3.08;;;;;;;;;;5038719;28;20043;-72
2021/09/15 13:03:05;;;;;;;4.25;3.42;;;;;;;;;;5041946;28;21143;-75
2021/09/15 13:05:50;;;;;;;4.85;3.92;;;;;;;;;;5032211;28;20040;-73
2021/09/15 13:08:34;;;;;;;4.60;3.75;;;;;;;;;;5042309;28;20755;-73
2021/09/15 13:11:19;;;;;;;5.15;3.92;;;;;;;;;;5039099;28;20475;-73
2021/09/15 13:14:04;;;;;;;5.28;3.50;;;;;;;;;;5043641;28;20091;-73
2021/09/15 13:16:48;;;;;;;4.60;3.45;;;;;;;;;;5043894;28;20084;-73
2021/09/15 13:19:33;;;;;;;5.97;4.05;;;;;;;;;;5043689;28;20040;-74
2021/09/15 13:22:18;;;;;;;4.97;3.83;;;;;;;;;;5026633;28;20561;-74
2021/09/15 13:25:02;;;;;;;4.93;3.75;;;;;;;;;;5042902;28;20107;-75
2021/09/15 13:27:47;;;;;;;4.55;3.40;;;;;;;;;;5041755;28;20040;-74
2021/09/15 13:30:31;;;;;;;4.97;3.50;;;;;;;;;;5042546;28;20539;-74
2021/09/15 13:33:16;;;;;;;4.93;3.60;;;;;;;;;;5029128;28;20039;-74
2021/09/15 13:36:00;;;;;;;4.13;3.47;;;;;;;;;;5021102;28;20099;-74
2021/09/15 13:38:45;;;;;;;4.18;3.60;;;;;;;;;;5028932;28;20060;-74
2021/09/15 13:41:29;;;;;;;4.90;3.72;;;;;;;;;;5039364;28;20106;-74
2021/09/15 13:44:14;;;;;;;4.55;3.47;;;;;;;;;;5018644;28;20040;-74
2021/09/15 13:46:59;;;;;;;4.65;3.70;;;;;;;;;;5030688;28;20043;-74
2021/09/15 13:49:43;;;;;;;4.68;3.78;;;;;;;;;;5046027;28;20118;-74
2021/09/15 13:52:28;;;;;;;4.88;3.88;;;;;;;;;;5044005;28;20516;-74
2021/09/15 13:55:12;;;;;;;4.75;4.05;;;;;;;;;;5031546;28;20453;-74
2021/09/15 13:57:57;;;;;;;4.43;3.63;;;;;;;;;;5036057;28;20051;-74
2021/09/15 14:00:41;;;;;;;4.85;3.80;;;;;;;;;;5037779;28;20127;-74
2021/09/15 14:03:26;;;;;;;5.15;4.00;;;;;;;;;;5026336;28;20089;-74
2021/09/15 14:06:10;;;;;;;5.10;3.97;;;;;;;;;;5041003;28;20120;-74
2021/09/15 14:08:55;;;;;;;4.97;4.00;;;;;;;;;;5033390;28;20052;-74
2021/09/15 14:11:39;;;;;;;4.90;4.10;;;;;;;;;;5034737;28;20051;-74
2021/09/15 14:14:24;;;;;;;5.65;4.18;;;;;;;;;;5040988;28;20044;-74
2021/09/15 14:17:08;;;;;;;4.65;3.67;;;;;;;;;;5042729;28;20040;-74
2021/09/15 14:19:53;;;;;;;5.13;3.90;;;;;;;;;;5033476;28;20040;-74
2021/09/15 14:22:37;;;;;;;4.65;3.70;;;;;;;;;;5041997;28;20050;-74
2021/09/15 14:25:22;;;;;;;4.97;4.00;;;;;;;;;;5044440;28;20106;-74
2021/09/15 14:28:07;;;;;;;4.20;3.70;;;;;;;;;;5020251;28;20120;-73
2021/09/15 14:30:51;;;;;;;4.07;3.45;;;;;;;;;;5037905;28;20695;-73
2021/09/15 14:33:37;;;;;;;4.50;3.83;;;;;;;;;;5043263;28;20040;-74
2021/09/15 14:36:22;;;;;;;4.65;4.13;;;;;;;;;;5028784;28;20098;-74
2021/09/15 14:39:06;;;;;;;4.97;3.97;;;;;;;;;;5046373;28;20521;-74
2021/09/15 14:41:51;;;;;;;4.85;4.10;;;;;;;;;;5031874;28;20099;-73
2021/09/15 14:44:36;;;;;;;6.38;4.25;;;;;;;;;;5045047;28;20048;-74
2021/09/15 14:47:21;;;;;;;4.63;4.00;;;;;;;;;;5046473;28;20124;-73
2021/09/15 14:50:06;;;;;;;5.05;3.67;;;;;;;;;;5026351;28;20067;-73
2021/09/15 14:52:51;;;;;;;4.72;3.97;;;;;;;;;;5043912;28;20114;-74
2021/09/15 14:55:35;;;;;;;4.40;3.53;;;;;;;;;;5045299;28;20090;-73
2021/09/15 14:58:20;;;;;;;4.45;3.80;;;;;;;;;;5045947;28;20039;-73
2021/09/15 15:01:05;;;;;;;5.22;4.10;;;;;;;;;;5046860;28;20114;-73
2021/09/15 15:03:49;;;;;;;4.22;3.38;;;;;;;;;;5032354;28;20556;-73
2021/09/15 15:06:34;;;;;;;4.45;3.78;;;;;;;;;;5031596;28;20596;-74
2021/09/15 15:09:19;;;;;;;4.68;3.75;;;;;;;;;;5046235;28;20095;-74
2021/09/15 15:12:03;;;;;;;5.10;3.35;;;;;;;;;;5045790;28;20056;-74
2021/09/15 15:14:48;;;;;;;3.95;3.53;;;;;;;;;;5045937;28;20123;-73
2021/09/15 15:17:33;;;;;;;4.38;3.70;;;;;;;;;;5045248;28;20120;-73
2021/09/15 15:20:17;;;;;;;4.57;3.67;;;;;;;;;;5025979;28;20103;-74
2021/09/15 15:23:02;;;;;;;4.22;3.47;;;;;;;;;;5040359;28;20044;-73
2021/09/15 15:25:46;;;;;;;4.55;3.65;;;;;;;;;;5033133;28;20098;-73
2021/09/15 15:28:31;;;;;;;4.55;3.72;;;;;;;;;;5044593;28;20095;-74
2021/09/15 15:31:15;;;;;;;4.20;3.80;;;;;;;;;;5046387;28;20200;-74
2021/09/15 15:34:00;;;;;;;4.20;3.58;;;;;;;;;;5047154;28;20079;-73
2021/09/15 15:36:44;;;;;;;4.10;3.50;;;;;;;;;;5042385;28;20112;-74
2021/09/15 15:39:29;;;;;;;4.35;3.72;;;;;;;;;;5043305;28;20036;-73
2021/09/15 15:42:13;;;;;;;4.35;3.60;;;;;;;;;;5031892;28;20048;-73
2021/09/15 15:44:57;;;;;;;4.13;3.70;;;;;;;;;;5029864;28;20044;-73
2021/09/15 15:47:42;;;;;;;3.92;3.53;;;;;;;;;;5025231;28;20668;-73
2021/09/15 15:50:26;;;;;;;4.25;3.65;;;;;;;;;;5042741;28;20075;-73
2021/09/15 15:53:11;;;;;;;5.13;3.70;;;;;;;;;;5044785;28;20120;-74
2021/09/15 15:55:56;;;;;;;4.72;3.35;;;;;;;;;;5043905;28;20036;-73
2021/09/15 15:58:40;;;;;;;3.95;3.28;;;;;;;;;;5030297;28;20520;-73
2021/09/15 16:01:25;;;;;;;4.15;3.35;;;;;;;;;;5044853;28;20044;-73
2021/09/15 16:04:09;;;;;;;3.83;3.30;;;;;;;;;;5045741;28;20126;-73
2021/09/15 16:06:54;;;;;;;3.97;3.30;;;;;;;;;;5045433;28;20095;-74
2021/09/15 16:09:38;;;;;;;4.05;3.50;;;;;;;;;;5043262;28;20401;-74
2021/09/15 16:12:23;;;;;;;3.90;3.50;;;;;;;;;;5044420;28;20099;-74
2021/09/15 16:15:08;;;;;;;4.28;3.05;;;;;;;;;;5031300;28;20075;-74
2021/09/15 16:17:53;;;;;;;3.85;3.40;;;;;;;;;;5044489;28;20099;-73
2021/09/15 16:20:39;;;;;;;4.32;3.28;;;;;;;;;;5030296;28;20083;-74
2021/09/15 16:23:24;;;;;;;3.90;3.10;;;;;;;;;;5032714;28;20099;-73
2021/09/15 16:26:09;;;;;;;3.53;3.03;;;;;;;;;;5031313;28;20048;-75
2021/09/15 16:28:53;;;;;;;4.13;3.10;;;;;;;;;;5044368;28;20048;-74
2021/09/15 16:31:38;;;;;;;4.03;3.38;;;;;;;;;;5041080;28;20047;-73
2021/09/15 16:34:23;;;;;;;3.92;3.35;;;;;;;;;;5018892;28;20036;-73
2021/09/15 16:37:08;;;;;;;3.63;3.03;;;;;;;;;;5044172;28;20121;-73
2021/09/15 16:39:52;;;;;;;3.78;3.05;;;;;;;;;;5044828;28;20441;-73